createdAt,value
2023-02-18T14:56:15.766Z,26.10
2023-02-18T14:58:45.280Z,25.90
2023-02-18T15:01:14.628Z,23.83
2023-02-18T15:03:43.970Z,23.62
2023-02-18T15:06:13.447Z,23.50
2023-02-18T15:08:43.078Z,22.48
2023-02-18T15:11:16.165Z,23.95
2023-02-18T15:13:45.480Z,21.70
2023-02-18T15:16:14.805Z,22.77
2023-02-18T15:18:44.179Z,22.80
2023-02-18T15:21:13.173Z,21.87
2023-02-18T15:23:42.562Z,22.40
2023-02-18T15:26:12.080Z,23.50
2023-02-18T15:28:41.472Z,22.82
2023-02-18T15:31:12.652Z,23.10
2023-02-18T15:33:41.080Z,23.70
2023-02-18T15:36:10.301Z,22.87
2023-02-18T15:38:39.413Z,22.53
2023-02-18T15:41:08.986Z,22.53
2023-02-18T15:43:38.292Z,23.35
2023-02-18T15:46:07.602Z,23.87
2023-02-18T15:48:36.902Z,24.80
2023-02-18T15:51:16.223Z,22.87
2023-02-18T15:53:36.270Z,24.35
2023-02-18T15:56:05.689Z,22.73
2023-02-18T15:58:36.400Z,24.98
2023-02-18T16:01:05.407Z,23.85
2023-02-18T16:03:34.754Z,25.77
2023-02-18T16:06:04.053Z,25.30
2023-02-18T16:08:33.558Z,23.98
2023-02-18T16:11:05.928Z,23.62
2023-02-18T16:13:33.415Z,24.23
2023-02-18T16:16:02.659Z,24.97
2023-02-18T16:18:31.792Z,24.70
2023-02-18T16:21:01.216Z,25.77
2023-02-18T16:23:30.484Z,24.82
2023-02-18T16:25:59.680Z,24.40
2023-02-18T16:28:29.082Z,24.20
2023-02-18T16:30:58.605Z,24.72
2023-02-18T16:33:27.796Z,22.87
2023-02-18T16:35:57.395Z,24.82
2023-02-18T16:38:28.465Z,25.05
2023-02-18T16:40:57.327Z,24.60
2023-02-18T16:43:26.733Z,23.45
2023-02-18T16:45:56.014Z,25.50
2023-02-18T16:48:25.368Z,26.50
2023-02-18T16:50:54.758Z,24.73
2023-02-18T16:53:24.041Z,26.15
2023-02-18T16:55:55.007Z,26.13
2023-02-18T16:58:23.863Z,25.25
2023-02-18T17:00:53.227Z,25.77
2023-02-18T17:03:22.384Z,25.70
2023-02-18T17:05:51.894Z,26.17
